Time;durP1;ratioP1;P1;durP2;ratioP2;P2;SDS_P1;SDS_P2;PMS_P1;PMS_P2;Temp;Humidity;BMP_temperature;BMP_pressure;BME280_temperature;BME280_humidity;BME280_pressure;Samples;Min_cycle;Max_cycle;Signal;HPM_P1;HPM_P2
2022/01/07 00:00:20;;;;;;;28.95;17.90;;;13.20;99.90;;;;;;5100936;28;20545;-65
2022/01/07 00:02:57;;;;;;;36.35;20.35;;;13.10;99.90;;;;;;5087338;28;20521;-65
2022/01/07 00:05:27;;;;;;;33.72;20.77;;;13.20;99.90;;;;;;5126276;27;20035;-67
2022/01/07 00:07:54;;;;;;;30.35;18.95;;;13.20;99.90;;;;;;5125348;27;20126;-65
2022/01/07 00:10:22;;;;;;;31.58;22.50;;;13.20;99.90;;;;;;5108024;27;20043;-65
2022/01/07 00:12:51;;;;;;;33.42;21.35;;;13.10;99.90;;;;;;5122674;27;20126;-66
2022/01/07 00:15:19;;;;;;;35.35;21.40;;;13.10;99.90;;;;;;5097020;28;20090;-65
2022/01/07 00:17:47;;;;;;;32.95;21.40;;;13.10;99.90;;;;;;5108608;27;20122;-66
2022/01/07 00:20:15;;;;;;;34.08;21.83;;;13.10;99.90;;;;;;5106077;27;20059;-66
2022/01/07 00:22:44;;;;;;;35.70;22.27;;;13.10;99.90;;;;;;5098995;28;20043;-66
2022/01/07 00:25:13;;;;;;;29.25;19.42;;;13.10;99.90;;;;;;5097234;28;20043;-66
2022/01/07 00:27:41;;;;;;;28.73;18.10;;;13.00;99.90;;;;;;5115065;28;20124;-66
2022/01/07 00:30:11;;;;;;;31.13;19.33;;;13.00;99.90;;;;;;5080034;28;20134;-66
2022/01/07 00:32:39;;;;;;;24.60;17.13;;;13.00;99.90;;;;;;5097051;28;20044;-67
2022/01/07 00:35:09;;;;;;;28.15;17.25;;;13.00;99.90;;;;;;5096834;28;20122;-66
2022/01/07 00:37:37;;;;;;;21.65;16.77;;;13.00;99.90;;;;;;5096728;28;20043;-66
2022/01/07 00:40:11;;;;;;;28.15;18.80;;;13.00;99.90;;;;;;5114664;28;20041;-66
2022/01/07 00:42:39;;;;;;;23.92;18.17;;;13.00;99.90;;;;;;5063144;28;20402;-66
2022/01/07 00:45:07;;;;;;;28.25;18.48;;;13.00;99.90;;;;;;5096748;28;20054;-66
2022/01/07 00:47:35;;;;;;;27.20;17.83;;;13.00;99.90;;;;;;5095994;28;20524;-66
2022/01/07 00:50:04;;;;;;;27.55;17.98;;;13.00;99.90;;;;;;5076290;28;20052;-66
2022/01/07 00:52:33;;;;;;;31.45;19.13;;;13.00;99.90;;;;;;5093442;28;20494;-66
2022/01/07 00:55:01;;;;;;;27.33;17.98;;;13.00;99.90;;;;;;5114786;28;20464;-66
2022/01/07 00:57:28;;;;;;;25.10;18.20;;;13.00;99.90;;;;;;5095886;28;20055;-66
2022/01/07 00:59:56;;;;;;;19.38;14.52;;;13.00;99.90;;;;;;5096649;28;20122;-66
2022/01/07 01:02:23;;;;;;;22.17;15.40;;;13.00;99.90;;;;;;5079930;28;20075;-66
2022/01/07 01:04:51;;;;;;;24.17;15.50;;;13.00;99.90;;;;;;5079447;28;20047;-66
2022/01/07 01:07:18;;;;;;;22.63;14.63;;;13.00;99.90;;;;;;5096234;28;20036;-66
2022/01/07 01:09:46;;;;;;;18.13;12.98;;;13.00;99.90;;;;;;5114592;28;20496;-67
2022/01/07 01:12:13;;;;;;;17.75;12.45;;;13.00;99.90;;;;;;5114301;28;20413;-66
2022/01/07 01:14:41;;;;;;;15.38;10.85;;;13.00;99.90;;;;;;5062632;28;20096;-66
2022/01/07 01:17:09;;;;;;;15.20;9.48;;;13.00;99.90;;;;;;5096352;28;20397;-66
2022/01/07 01:19:37;;;;;;;12.75;9.05;;;13.00;99.90;;;;;;5114310;28;20061;-66
2022/01/07 01:22:05;;;;;;;12.10;8.88;;;13.00;99.90;;;;;;5079430;28;20047;-66
2022/01/07 01:24:32;;;;;;;15.95;10.52;;;13.00;99.90;;;;;;5096179;28;20067;-66
2022/01/07 01:27:01;;;;;;;15.48;9.77;;;13.00;99.90;;;;;;5114146;28;20122;-66
2022/01/07 01:29:28;;;;;;;16.77;10.80;;;13.10;99.90;;;;;;5079068;28;20048;-66
2022/01/07 01:31:56;;;;;;;15.30;10.30;;;13.00;99.90;;;;;;5079354;28;20043;-66
2022/01/07 01:34:23;;;;;;;13.63;9.52;;;13.00;99.90;;;;;;5079332;28;20126;-66
2022/01/07 01:36:51;;;;;;;13.85;10.32;;;13.10;99.90;;;;;;5113943;28;20039;-67
2022/01/07 01:39:18;;;;;;;12.75;9.38;;;13.10;99.90;;;;;;5113944;28;20043;-66
2022/01/07 01:41:46;;;;;;;13.95;8.45;;;13.10;99.90;;;;;;5113816;28;20138;-66
2022/01/07 01:44:14;;;;;;;13.48;9.35;;;13.10;99.90;;;;;;5079062;28;20048;-66
2022/01/07 01:46:42;;;;;;;13.68;8.57;;;13.20;99.90;;;;;;5095872;28;20424;-67
2022/01/07 01:49:09;;;;;;;18.00;9.85;;;13.10;99.90;;;;;;5079036;28;20043;-67
2022/01/07 01:51:37;;;;;;;15.30;10.00;;;13.20;99.90;;;;;;5113211;28;20545;-68
2022/01/07 01:54:04;;;;;;;14.85;10.00;;;13.20;99.90;;;;;;5078607;28;20051;-67
2022/01/07 01:56:33;;;;;;;18.23;10.90;;;13.20;99.90;;;;;;5113658;28;20119;-67
2022/01/07 01:59:01;;;;;;;18.17;10.60;;;13.20;99.90;;;;;;5079094;28;20040;-67
2022/01/07 02:01:28;;;;;;;17.25;12.00;;;13.20;99.90;;;;;;5095870;28;20508;-66
2022/01/07 02:03:56;;;;;;;18.65;11.18;;;13.20;99.90;;;;;;5095835;28;20039;-66
2022/01/07 02:06:24;;;;;;;18.90;11.32;;;13.20;99.90;;;;;;5079055;28;20540;-67
2022/01/07 02:08:52;;;;;;;18.88;12.07;;;13.20;99.90;;;;;;5079529;28;20043;-67
2022/01/07 02:11:19;;;;;;;19.52;11.40;;;13.20;99.90;;;;;;5083165;28;20484;-67
2022/01/07 02:13:48;;;;;;;19.90;12.73;;;13.10;99.90;;;;;;5099796;28;20040;-66
2022/01/07 02:16:16;;;;;;;24.35;14.02;;;13.10;99.90;;;;;;5082917;28;20067;-67
2022/01/07 02:18:43;;;;;;;21.65;12.48;;;13.10;99.90;;;;;;5082972;28;20478;-67
2022/01/07 02:21:11;;;;;;;21.73;12.82;;;13.10;99.90;;;;;;5082744;28;20040;-67
2022/01/07 02:23:38;;;;;;;17.85;13.02;;;13.10;99.90;;;;;;5099473;28;20035;-67
2022/01/07 02:26:07;;;;;;;22.90;11.50;;;13.10;99.90;;;;;;5117677;28;20122;-67
2022/01/07 02:28:35;;;;;;;22.55;13.68;;;13.00;99.90;;;;;;5117511;28;20377;-67
2022/01/07 02:31:02;;;;;;;20.83;12.45;;;13.00;99.90;;;;;;5099535;28;20044;-67
2022/01/07 02:33:30;;;;;;;20.63;12.93;;;13.00;99.90;;;;;;5099495;28;20063;-67
2022/01/07 02:35:58;;;;;;;20.55;12.90;;;13.00;99.90;;;;;;5082664;28;20067;-67
2022/01/07 02:38:25;;;;;;;18.02;12.07;;;13.10;99.90;;;;;;5099222;28;20123;-67
2022/01/07 02:40:53;;;;;;;18.02;12.35;;;13.00;99.90;;;;;;5099173;28;20042;-67
2022/01/07 02:43:20;;;;;;;20.45;11.93;;;13.00;99.90;;;;;;5099107;28;20050;-67
2022/01/07 02:45:48;;;;;;;18.98;11.88;;;13.00;99.90;;;;;;5099259;28;20078;-67
2022/01/07 02:48:15;;;;;;;18.90;11.30;;;13.00;99.90;;;;;;5082225;28;20109;-67
2022/01/07 02:50:43;;;;;;;18.52;11.52;;;13.00;99.90;;;;;;5117312;28;20134;-67
2022/01/07 02:53:12;;;;;;;14.13;11.63;;;13.00;99.90;;;;;;5081949;28;20039;-67
2022/01/07 02:55:42;;;;;;;15.23;10.73;;;13.00;99.90;;;;;;5099039;28;20053;-66
2022/01/07 02:58:10;;;;;;;16.77;12.15;;;12.90;99.90;;;;;;5116963;28;20596;-66
2022/01/07 03:00:38;;;;;;;16.70;10.90;;;12.90;99.90;;;;;;5081722;28;20192;-66
2022/01/07 03:03:07;;;;;;;19.45;11.95;;;12.90;99.90;;;;;;5065605;28;20079;-66
2022/01/07 03:05:35;;;;;;;20.15;10.85;;;12.90;99.90;;;;;;5098716;28;20397;-66
2022/01/07 03:08:02;;;;;;;14.55;10.90;;;12.80;99.90;;;;;;5116782;28;20486;-66
2022/01/07 03:10:30;;;;;;;20.67;9.13;;;12.90;99.90;;;;;;5116763;28;20454;-67
2022/01/07 03:13:00;;;;;;;15.05;10.30;;;12.80;99.90;;;;;;5098751;28;20490;-67
2022/01/07 03:15:30;;;;;;;14.25;10.52;;;12.80;99.90;;;;;;5099052;28;20074;-67
2022/01/07 03:17:58;;;;;;;16.88;10.98;;;12.80;99.90;;;;;;5081503;28;20063;-67
2022/01/07 03:20:26;;;;;;;15.40;9.57;;;12.80;99.90;;;;;;5097894;28;20052;-66
2022/01/07 03:22:54;;;;;;;12.02;8.85;;;12.80;99.90;;;;;;5098492;28;20146;-66
2022/01/07 03:25:22;;;;;;;14.77;9.73;;;12.80;99.90;;;;;;5098286;28;20080;-67
2022/01/07 03:27:49;;;;;;;16.60;8.60;;;12.80;99.90;;;;;;5098309;28;20058;-66
2022/01/07 03:30:18;;;;;;;15.32;9.48;;;12.80;99.90;;;;;;5098453;28;20047;-66
2022/01/07 03:32:46;;;;;;;14.43;9.10;;;12.80;99.90;;;;;;5116456;28;20043;-66
2022/01/07 03:35:14;;;;;;;18.38;9.13;;;12.80;99.90;;;;;;5116300;28;20118;-66
2022/01/07 03:37:43;;;;;;;15.23;8.70;;;12.80;99.90;;;;;;5116301;28;20578;-66
2022/01/07 03:40:12;;;;;;;13.63;9.07;;;12.80;99.90;;;;;;5098325;28;20488;-66
2022/01/07 03:42:41;;;;;;;16.60;9.60;;;12.80;99.90;;;;;;5098005;28;20497;-66
2022/01/07 03:45:09;;;;;;;14.98;9.02;;;12.80;99.90;;;;;;5098118;28;20398;-66
2022/01/07 03:47:38;;;;;;;18.58;9.40;;;12.80;99.90;;;;;;5097982;28;20493;-66
2022/01/07 03:50:08;;;;;;;17.90;9.48;;;12.80;99.90;;;;;;5080964;28;20048;-66
2022/01/07 03:52:36;;;;;;;20.63;8.65;;;12.80;99.90;;;;;;5097978;28;20053;-67
2022/01/07 03:55:07;;;;;;;18.45;9.48;;;12.80;99.90;;;;;;5116064;28;20389;-66
2022/01/07 03:57:35;;;;;;;18.70;9.50;;;12.80;99.90;;;;;;5097845;28;20051;-66
2022/01/07 04:00:06;;;;;;;16.00;10.15;;;12.80;99.90;;;;;;5097567;28;20138;-67
2022/01/07 04:02:38;;;;;;;19.42;10.48;;;12.80;99.90;;;;;;5097786;28;20054;-66
2022/01/07 04:05:07;;;;;;;15.77;9.73;;;12.80;99.90;;;;;;5064077;28;20444;-66
2022/01/07 04:07:35;;;;;;;16.33;10.25;;;12.80;99.90;;;;;;5097539;28;20071;-65
2022/01/07 04:10:04;;;;;;;17.85;11.13;;;12.80;99.90;;;;;;5080499;28;20040;-65
2022/01/07 04:12:32;;;;;;;17.55;10.68;;;12.80;99.90;;;;;;5115617;28;20039;-65
2022/01/07 04:15:08;;;;;;;16.85;10.40;;;12.80;99.90;;;;;;5097585;28;20126;-67
2022/01/07 04:17:46;;;;;;;18.63;9.63;;;12.80;99.90;;;;;;5097279;28;20051;-67
2022/01/07 04:20:17;;;;;;;18.83;10.13;;;12.80;99.90;;;;;;5115552;28;20052;-67
2022/01/07 04:22:45;;;;;;;15.38;8.75;;;12.90;99.90;;;;;;5115593;28;20047;-66
2022/01/07 04:25:17;;;;;;;14.63;10.15;;;12.80;99.90;;;;;;5097282;28;20122;-66
2022/01/07 04:27:54;;;;;;;14.95;9.00;;;12.80;99.90;;;;;;5097233;28;20115;-66
2022/01/07 04:30:23;;;;;;;14.98;9.05;;;12.80;99.90;;;;;;5115214;28;20490;-67
2022/01/07 04:32:52;;;;;;;18.08;9.00;;;12.90;99.90;;;;;;5062888;28;20051;-67
2022/01/07 04:35:20;;;;;;;15.73;9.75;;;12.90;99.90;;;;;;5115258;28;20058;-67
2022/01/07 04:37:49;;;;;;;17.63;10.30;;;12.90;99.90;;;;;;5096872;28;20043;-66
2022/01/07 04:40:17;;;;;;;17.52;10.23;;;12.90;99.90;;;;;;5097067;28;20051;-67
2022/01/07 04:42:45;;;;;;;13.00;9.00;;;13.00;99.90;;;;;;5096831;28;20146;-67
2022/01/07 04:45:13;;;;;;;13.82;10.63;;;13.00;99.90;;;;;;5114836;28;20122;-66
2022/01/07 04:47:42;;;;;;;17.38;8.52;;;13.00;99.90;;;;;;5079764;28;20047;-67
2022/01/07 04:50:16;;;;;;;16.27;8.85;;;13.00;99.90;;;;;;5096461;28;20051;-67
2022/01/07 04:52:44;;;;;;;19.42;11.85;;;13.00;99.90;;;;;;5096736;28;20044;-66
2022/01/07 04:55:17;;;;;;;18.88;9.13;;;13.00;99.90;;;;;;5079778;28;20113;-67
2022/01/07 04:57:46;;;;;;;17.25;9.48;;;13.00;99.90;;;;;;5096834;28;20054;-66
2022/01/07 05:00:15;;;;;;;15.73;9.38;;;13.00;99.90;;;;;;5096640;28;20038;-66
2022/01/07 05:02:43;;;;;;;18.52;11.18;;;13.00;99.90;;;;;;5079888;28;20063;-66
2022/01/07 05:05:11;;;;;;;19.38;11.02;;;13.00;99.90;;;;;;5096385;28;20040;-66
2022/01/07 05:07:39;;;;;;;16.98;9.85;;;13.00;99.90;;;;;;5096655;28;20134;-67
2022/01/07 05:10:09;;;;;;;20.83;11.95;;;13.00;99.90;;;;;;5079495;28;20130;-66
2022/01/07 05:12:37;;;;;;;18.10;12.20;;;13.00;99.90;;;;;;5095869;28;20074;-66
2022/01/07 05:15:05;;;;;;;15.00;9.43;;;13.00;99.90;;;;;;5062777;28;20044;-66
2022/01/07 05:17:33;;;;;;;19.38;10.38;;;13.00;99.90;;;;;;5096382;28;20047;-66
2022/01/07 05:20:01;;;;;;;15.20;9.43;;;13.00;99.90;;;;;;5114261;28;20047;-66
2022/01/07 05:22:28;;;;;;;14.18;10.07;;;13.00;99.90;;;;;;5096262;28;20508;-66
2022/01/07 05:24:56;;;;;;;14.95;9.90;;;13.00;99.90;;;;;;5095987;28;20432;-66
2022/01/07 05:27:23;;;;;;;17.13;10.20;;;13.00;99.90;;;;;;5114252;28;20040;-66
2022/01/07 05:29:51;;;;;;;13.52;8.48;;;13.00;99.90;;;;;;5096172;28;20036;-66
2022/01/07 05:32:19;;;;;;;12.70;9.95;;;13.00;99.90;;;;;;5096224;28;20043;-66
2022/01/07 05:34:47;;;;;;;15.18;9.40;;;13.00;99.90;;;;;;5096231;28;20127;-66
2022/01/07 05:37:14;;;;;;;18.42;9.38;;;13.00;99.90;;;;;;5114025;28;20071;-66
2022/01/07 05:39:42;;;;;;;17.55;8.73;;;13.00;99.90;;;;;;5096144;28;20134;-66
2022/01/07 05:42:09;;;;;;;14.10;9.30;;;13.00;99.90;;;;;;5095807;28;20058;-66
2022/01/07 05:44:37;;;;;;;16.13;9.40;;;13.00;99.90;;;;;;5113543;28;20490;-66
2022/01/07 05:47:05;;;;;;;15.15;8.15;;;13.00;99.90;;;;;;5095988;28;20503;-66
2022/01/07 05:49:33;;;;;;;9.88;7.85;;;13.00;99.90;;;;;;5062322;28;20481;-66
2022/01/07 05:52:00;;;;;;;14.13;7.93;;;13.00;99.90;;;;;;5078887;28;20159;-66
2022/01/07 05:54:28;;;;;;;10.68;6.75;;;13.00;99.90;;;;;;5095978;28;20089;-66
2022/01/07 05:56:55;;;;;;;11.63;6.20;;;13.00;99.90;;;;;;5078887;28;20519;-66
2022/01/07 05:59:23;;;;;;;15.07;7.03;;;13.00;99.90;;;;;;5078780;28;20056;-66
2022/01/07 06:01:50;;;;;;;12.45;6.68;;;13.00;99.90;;;;;;5113780;28;20047;-66
2022/01/07 06:04:17;;;;;;;12.70;7.85;;;13.00;99.90;;;;;;5095754;28;20398;-66
2022/01/07 06:06:45;;;;;;;11.73;5.30;;;12.90;99.90;;;;;;5095720;28;20063;-66
2022/01/07 06:09:13;;;;;;;12.10;5.80;;;12.90;99.90;;;;;;5113871;28;20071;-67
2022/01/07 06:11:40;;;;;;;10.23;5.38;;;13.00;99.90;;;;;;5095647;28;20047;-66
2022/01/07 06:14:08;;;;;;;9.13;5.47;;;13.00;99.90;;;;;;5095551;28;20038;-66
2022/01/07 06:16:36;;;;;;;11.20;6.03;;;12.90;99.90;;;;;;5078873;28;20470;-66
2022/01/07 06:19:04;;;;;;;10.20;5.15;;;12.90;99.90;;;;;;5095433;28;20444;-67
2022/01/07 06:21:31;;;;;;;11.07;5.35;;;12.90;99.90;;;;;;5112990;28;20126;-66
2022/01/07 06:23:59;;;;;;;13.70;6.68;;;12.90;99.90;;;;;;5078971;28;20096;-66
2022/01/07 06:26:27;;;;;;;7.70;4.30;;;12.90;99.90;;;;;;5078857;28;20135;-67
2022/01/07 06:28:54;;;;;;;9.95;4.55;;;12.90;99.90;;;;;;5113548;28;20067;-67
2022/01/07 06:31:22;;;;;;;11.13;4.88;;;12.90;99.90;;;;;;5113527;28;20051;-67
2022/01/07 06:33:49;;;;;;;7.88;4.18;;;12.90;99.90;;;;;;5078699;28;20556;-67
2022/01/07 06:36:16;;;;;;;6.20;4.10;;;12.90;99.90;;;;;;5113457;28;20466;-67
2022/01/07 06:38:44;;;;;;;7.25;3.00;;;12.80;99.90;;;;;;5095408;28;20379;-67
2022/01/07 06:41:11;;;;;;;5.97;4.32;;;12.80;99.90;;;;;;5078630;28;20537;-67
2022/01/07 06:43:40;;;;;;;8.43;3.83;;;12.80;99.90;;;;;;5095262;28;20516;-66
2022/01/07 06:46:08;;;;;;;9.32;3.90;;;12.80;99.90;;;;;;5095567;28;20063;-67
2022/01/07 06:48:35;;;;;;;15.98;5.90;;;12.80;99.90;;;;;;5078547;28;20080;-67
2022/01/07 06:51:03;;;;;;;10.48;6.80;;;12.80;99.90;;;;;;5094980;28;20055;-67
2022/01/07 06:53:31;;;;;;;13.25;7.03;;;12.80;99.90;;;;;;5078616;28;20123;-67
2022/01/07 06:55:59;;;;;;;8.07;5.90;;;12.80;99.90;;;;;;5096164;28;20466;-67
2022/01/07 06:58:27;;;;;;;6.90;4.88;;;12.80;99.90;;;;;;5082026;28;20055;-67
2022/01/07 07:00:55;;;;;;;11.25;5.68;;;12.80;99.90;;;;;;5117010;28;20043;-67
2022/01/07 07:03:22;;;;;;;7.53;5.35;;;12.80;99.90;;;;;;5116910;28;20108;-67
2022/01/07 07:05:50;;;;;;;8.93;5.00;;;12.80;99.90;;;;;;5099020;28;20043;-67
2022/01/07 07:08:18;;;;;;;8.30;4.30;;;12.90;99.90;;;;;;5116982;28;20070;-67
2022/01/07 07:10:45;;;;;;;11.32;5.50;;;12.90;99.90;;;;;;5098556;28;20047;-67
2022/01/07 07:13:13;;;;;;;10.02;4.47;;;12.90;99.90;;;;;;5098582;28;20036;-67
2022/01/07 07:15:40;;;;;;;11.00;4.28;;;12.90;99.90;;;;;;5116719;28;20040;-67
2022/01/07 07:18:08;;;;;;;6.43;4.00;;;13.00;99.90;;;;;;5081699;28;20047;-67
2022/01/07 07:20:36;;;;;;;9.88;4.65;;;13.00;99.90;;;;;;5116769;28;20047;-67
2022/01/07 07:23:03;;;;;;;10.73;4.32;;;12.90;99.90;;;;;;5098729;28;20150;-68
2022/01/07 07:25:31;;;;;;;11.65;6.78;;;13.00;99.90;;;;;;5098522;28;20508;-67
2022/01/07 07:27:58;;;;;;;13.30;5.18;;;13.00;99.90;;;;;;5098486;28;20051;-67
2022/01/07 07:30:33;;;;;;;10.15;4.60;;;13.00;99.90;;;;;;5098203;28;20044;-67
2022/01/07 07:33:55;;;;;;;10.25;4.95;;;13.00;99.90;;;;;;5081616;28;20477;-67
2022/01/07 07:38:44;;;;;;;7.60;4.22;;;13.00;99.90;;;;;;5098186;28;20050;-67
2022/01/07 07:41:12;;;;;;;6.78;4.32;;;13.00;99.90;;;;;;5098336;28;20054;-67
2022/01/07 07:43:41;;;;;;;4.95;3.72;;;13.00;99.90;;;;;;5064939;28;20043;-67
2022/01/07 07:46:08;;;;;;;11.90;4.40;;;13.10;99.90;;;;;;5081420;28;20051;-67
2022/01/07 07:48:36;;;;;;;9.02;3.85;;;13.10;99.90;;;;;;5097698;28;20043;-68
2022/01/07 07:51:03;;;;;;;9.35;4.03;;;13.10;99.90;;;;;;5116056;28;20146;-67
2022/01/07 07:53:31;;;;;;;6.70;4.07;;;13.10;99.90;;;;;;5097983;28;20039;-66
2022/01/07 07:55:59;;;;;;;9.05;4.85;;;13.10;99.90;;;;;;5098067;28;20047;-67
2022/01/07 07:58:29;;;;;;;8.68;4.55;;;13.20;99.90;;;;;;5097740;28;20092;-67
2022/01/07 08:00:56;;;;;;;8.52;6.13;;;13.20;99.90;;;;;;5097781;28;20119;-66
2022/01/07 08:03:25;;;;;;;12.70;4.60;;;13.30;99.90;;;;;;5097757;28;20044;-67
2022/01/07 08:05:52;;;;;;;8.65;4.65;;;13.30;99.90;;;;;;5080623;28;20138;-66
2022/01/07 08:08:20;;;;;;;12.70;5.32;;;13.30;99.90;;;;;;5115638;28;20126;-66
2022/01/07 08:10:51;;;;;;;10.35;5.03;;;13.30;99.90;;;;;;5080989;28;20043;-66
2022/01/07 08:13:28;;;;;;;14.02;5.15;;;13.40;99.90;;;;;;5115628;28;20130;-66
2022/01/07 08:16:05;;;;;;;11.35;3.92;;;13.40;99.90;;;;;;5080794;28;20070;-67
2022/01/07 08:18:35;;;;;;;9.55;4.95;;;13.40;99.90;;;;;;5115539;28;20109;-68
2022/01/07 08:21:08;;;;;;;12.38;4.60;;;13.40;99.90;;;;;;5097720;28;20389;-68
2022/01/07 08:23:41;;;;;;;11.80;4.68;;;13.40;99.90;;;;;;5097416;28;20126;-67
2022/01/07 08:26:10;;;;;;;9.73;4.25;;;13.40;99.90;;;;;;5115432;28;20071;-68
2022/01/07 08:28:46;;;;;;;13.10;5.85;;;13.40;99.90;;;;;;5063689;28;20054;-68
2022/01/07 08:34:52;;;;;;;9.82;4.57;;;13.40;99.90;;;;;;5080064;28;20050;-68
2022/01/07 08:36:59;;;;;;;13.02;5.75;;;13.40;99.90;;;;;;5097041;28;20371;-68
2022/01/07 08:39:27;;;;;;;13.30;5.78;;;13.40;99.90;;;;;;5096944;28;20050;-68
2022/01/07 08:41:55;;;;;;;8.98;4.60;;;13.40;99.90;;;;;;5115053;28;20048;-68
2022/01/07 08:44:25;;;;;;;9.20;5.80;;;13.40;99.90;;;;;;5096862;28;20511;-68
2022/01/07 08:46:53;;;;;;;10.75;6.32;;;13.50;99.90;;;;;;5096910;28;20056;-68
2022/01/07 08:49:21;;;;;;;14.10;7.63;;;13.50;99.90;;;;;;5079917;28;20495;-68
2022/01/07 08:51:49;;;;;;;12.85;8.02;;;13.50;99.90;;;;;;5114673;28;20481;-68
2022/01/07 08:54:16;;;;;;;14.75;8.95;;;13.60;99.90;;;;;;5096739;28;20055;-68
2022/01/07 08:56:44;;;;;;;17.73;10.77;;;13.60;99.90;;;;;;5096911;28;20460;-68
2022/01/07 08:59:11;;;;;;;18.65;11.35;;;13.60;99.90;;;;;;5063319;28;20483;-68
2022/01/07 09:01:39;;;;;;;16.02;9.73;;;13.60;99.90;;;;;;5114768;28;20044;-68
2022/01/07 09:04:07;;;;;;;21.58;11.98;;;13.60;99.90;;;;;;5096436;28;20367;-68
2022/01/07 09:06:35;;;;;;;15.20;9.13;;;13.70;99.90;;;;;;5058232;28;20119;-69
2022/01/07 09:09:03;;;;;;;16.67;10.60;;;13.70;99.90;;;;;;5063976;28;20044;-68
2022/01/07 09:11:31;;;;;;;14.93;9.57;;;13.70;99.90;;;;;;5074314;28;20358;-68
2022/01/07 09:13:59;;;;;;;15.38;7.80;;;13.80;99.90;;;;;;5105032;28;20047;-68
2022/01/07 09:16:27;;;;;;;14.93;8.57;;;13.80;99.90;;;;;;5093837;28;20036;-68
2022/01/07 09:18:55;;;;;;;13.93;8.23;;;13.80;99.90;;;;;;5082125;28;20097;-68
2022/01/07 09:21:22;;;;;;;19.30;8.25;;;13.90;99.90;;;;;;5080304;28;21005;-68
2022/01/07 09:23:50;;;;;;;21.60;8.50;;;14.00;99.90;;;;;;5082331;28;20052;-69
2022/01/07 09:26:18;;;;;;;18.70;8.95;;;14.00;99.90;;;;;;5092983;28;20040;-68
2022/01/07 09:28:45;;;;;;;13.15;8.80;;;14.10;99.90;;;;;;5101892;28;20130;-68
2022/01/07 09:31:14;;;;;;;20.17;12.20;;;14.20;99.90;;;;;;5061360;28;20554;-68
2022/01/07 09:33:41;;;;;;;16.77;9.98;;;14.30;99.90;;;;;;5092237;28;20410;-67
2022/01/07 09:36:19;;;;;;;14.10;10.32;;;14.40;99.90;;;;;;5094140;28;20078;-68
2022/01/07 09:38:46;;;;;;;15.85;8.80;;;14.40;99.90;;;;;;5073293;28;20461;-69
2022/01/07 09:41:14;;;;;;;11.15;6.75;;;14.50;99.90;;;;;;5075834;28;20054;-67
2022/01/07 09:43:45;;;;;;;12.70;3.95;;;14.50;99.90;;;;;;5084395;28;20498;-67
2022/01/07 09:46:18;;;;;;;10.60;5.03;;;14.50;99.90;;;;;;5066816;28;20128;-68
2022/01/07 09:48:46;;;;;;;6.05;3.42;;;14.50;99.90;;;;;;5079838;28;20036;-68
2022/01/07 09:51:15;;;;;;;5.65;3.17;;;14.50;99.90;;;;;;5084389;28;20052;-67
2022/01/07 09:53:42;;;;;;;7.15;2.63;;;14.40;99.90;;;;;;5092820;28;20032;-69
2022/01/07 09:56:11;;;;;;;7.03;3.08;;;14.30;99.90;;;;;;5091899;28;20032;-67
2022/01/07 09:58:39;;;;;;;4.57;2.47;;;14.20;99.90;;;;;;5054307;28;20140;-68
2022/01/07 10:01:16;;;;;;;6.63;2.33;;;14.10;99.90;;;;;;5079421;28;20036;-68
2022/01/07 10:03:44;;;;;;;7.75;2.88;;;14.10;99.90;;;;;;5103134;28;20043;-67
2022/01/07 10:06:23;;;;;;;7.40;2.08;;;14.10;99.90;;;;;;5081669;28;20036;-67
2022/01/07 10:09:14;;;;;;;5.85;2.67;;;14.00;99.90;;;;;;5086750;28;20036;-66
2022/01/07 10:11:44;;;;;;;23.63;3.95;;;13.90;99.90;;;;;;5075183;28;20512;-66
2022/01/07 10:14:18;;;;;;;5.90;2.28;;;13.90;99.90;;;;;;5074017;28;20064;-66
2022/01/07 10:16:50;;;;;;;4.45;2.40;;;13.80;99.90;;;;;;5051285;28;20044;-67
2022/01/07 10:19:56;;;;;;;7.93;2.92;;;13.80;99.90;;;;;;5074312;28;20066;-69
2022/01/07 10:22:24;;;;;;;5.82;3.17;;;13.70;99.90;;;;;;5000790;28;20488;-68
2022/01/07 10:25:00;;;;;;;6.55;3.20;;;13.80;99.90;;;;;;5075011;28;20052;-66
2022/01/07 10:27:34;;;;;;;6.13;2.83;;;13.80;99.90;;;;;;5073516;28;20435;-67
2022/01/07 10:30:11;;;;;;;9.38;3.97;;;13.70;99.90;;;;;;5092202;28;20397;-67
2022/01/07 10:32:39;;;;;;;12.73;4.15;;;13.70;99.90;;;;;;5070330;28;20042;-68
2022/01/07 10:35:21;;;;;;;8.25;2.95;;;13.80;99.90;;;;;;5085821;28;20060;-67
2022/01/07 10:37:54;;;;;;;10.30;2.47;;;13.80;99.90;;;;;;5096802;28;20051;-66
2022/01/07 10:40:32;;;;;;;7.55;3.10;;;13.80;99.90;;;;;;5078782;28;20123;-66
2022/01/07 10:43:24;;;;;;;4.50;2.45;;;13.70;99.90;;;;;;5078800;28;20067;-66
2022/01/07 10:45:54;;;;;;;4.13;2.90;;;13.70;99.90;;;;;;5097184;28;20517;-67
2022/01/07 10:48:25;;;;;;;9.52;2.47;;;13.70;99.90;;;;;;5079121;28;20048;-66
2022/01/07 10:50:53;;;;;;;5.68;2.97;;;13.60;99.90;;;;;;5071706;28;20055;-66
2022/01/07 10:53:27;;;;;;;6.10;3.35;;;13.70;99.90;;;;;;5117082;28;20393;-67
2022/01/07 10:56:05;;;;;;;5.47;1.95;;;13.60;99.90;;;;;;5117095;28;20859;-66
2022/01/07 10:59:01;;;;;;;5.07;3.22;;;13.70;99.90;;;;;;5082271;28;20050;-66
2022/01/07 11:01:33;;;;;;;7.20;2.30;;;13.60;99.90;;;;;;5116933;28;20055;-66
2022/01/07 11:04:03;;;;;;;5.95;2.45;;;13.70;99.90;;;;;;5116881;28;20043;-67
2022/01/07 11:06:31;;;;;;;8.43;3.65;;;13.70;99.90;;;;;;5117141;28;20116;-66
2022/01/07 11:09:00;;;;;;;10.82;3.35;;;13.70;99.90;;;;;;5116934;28;20052;-63
2022/01/07 11:11:29;;;;;;;7.00;3.60;;;13.70;99.90;;;;;;5098770;28;20181;-63
2022/01/07 11:14:05;;;;;;;8.73;4.25;;;13.70;99.90;;;;;;5098701;28;20039;-64
2022/01/07 11:16:35;;;;;;;9.93;6.32;;;13.70;99.90;;;;;;5081965;28;20106;-65
2022/01/07 11:19:03;;;;;;;19.92;8.63;;;13.70;99.90;;;;;;5116677;28;20047;-64
2022/01/07 11:21:31;;;;;;;7.85;5.53;;;13.60;99.90;;;;;;5098626;28;20043;-64
2022/01/07 11:24:34;;;;;;;10.27;6.30;;;13.50;99.90;;;;;;5098635;28;20043;-64
2022/01/07 11:27:25;;;;;;;9.57;5.20;;;13.60;99.90;;;;;;5098340;28;20130;-65
2022/01/07 11:29:59;;;;;;;14.00;5.45;;;13.70;99.90;;;;;;5116639;28;20040;-64
2022/01/07 11:32:34;;;;;;;10.98;3.92;;;13.70;99.90;;;;;;5081390;28;20511;-65
2022/01/07 11:35:17;;;;;;;12.93;4.78;;;13.60;99.90;;;;;;5098460;28;20402;-66
2022/01/07 11:37:50;;;;;;;7.05;3.58;;;13.70;99.90;;;;;;5116219;28;20047;-64
2022/01/07 11:40:33;;;;;;;10.13;4.85;;;13.70;99.90;;;;;;5098459;28;20047;-65
2022/01/07 11:43:08;;;;;;;6.82;3.55;;;13.80;99.90;;;;;;5115539;28;20032;-64
2022/01/07 11:45:41;;;;;;;11.45;4.45;;;13.80;99.90;;;;;;5097911;28;20115;-64
2022/01/07 11:48:27;;;;;;;7.93;2.53;;;13.80;99.90;;;;;;5115956;28;20048;-64
2022/01/07 11:50:55;;;;;;;5.70;2.88;;;13.80;99.90;;;;;;5115842;28;20051;-65
2022/01/07 11:53:24;;;;;;;9.02;3.33;;;13.90;99.90;;;;;;5097721;28;20027;-65
2022/01/07 11:55:58;;;;;;;6.20;3.15;;;13.90;99.90;;;;;;5097771;28;20032;-65
2022/01/07 11:58:38;;;;;;;10.77;3.58;;;13.90;99.90;;;;;;5115802;28;20051;-66
2022/01/07 12:01:06;;;;;;;7.28;2.97;;;14.00;99.90;;;;;;5115693;28;20039;-69
2022/01/07 12:03:46;;;;;;;6.40;3.20;;;14.00;99.90;;;;;;5064031;28;20040;-65
2022/01/07 12:06:26;;;;;;;5.70;2.72;;;14.10;99.90;;;;;;5097611;28;20035;-65
2022/01/07 12:08:56;;;;;;;8.60;3.30;;;14.20;99.90;;;;;;5115683;28;20047;-65
2022/01/07 12:11:30;;;;;;;8.88;3.28;;;14.30;99.90;;;;;;5080362;28;20040;-65
2022/01/07 12:13:58;;;;;;;12.57;3.13;;;14.30;99.90;;;;;;5080596;28;20131;-64
2022/01/07 12:16:31;;;;;;;4.03;2.17;;;14.40;99.90;;;;;;5097503;28;20127;-64
2022/01/07 12:19:18;;;;;;;8.00;2.78;;;14.40;99.90;;;;;;5063429;28;20043;-67
2022/01/07 12:21:46;;;;;;;;;;;14.40;99.90;;;;;;5080591;28;20055;-67
2022/01/07 12:24:16;;;;;;;6.13;2.20;;;14.30;99.90;;;;;;5097266;28;19965;-68
2022/01/07 12:26:44;;;;;;;6.05;3.00;;;14.40;99.90;;;;;;5114844;28;20092;-67
2022/01/07 12:29:20;;;;;;;6.05;3.60;;;14.40;99.90;;;;;;5074740;28;20139;-67
2022/01/07 12:31:49;;;;;;;6.20;2.30;;;14.40;99.90;;;;;;5108427;28;20061;-69
2022/01/07 12:34:28;;;;;;;5.35;3.45;;;14.50;99.90;;;;;;5105160;28;20046;-66
2022/01/07 12:37:01;;;;;;;7.45;3.53;;;14.50;99.90;;;;;;5067525;28;20044;-67
2022/01/07 12:39:36;;;;;;;5.18;3.13;;;14.60;99.90;;;;;;5104917;28;20149;-67
2022/01/07 12:42:05;;;;;;;4.53;2.58;;;14.50;99.90;;;;;;5092819;28;20067;-66
2022/01/07 12:44:46;;;;;;;4.53;1.90;;;14.50;99.90;;;;;;5108556;27;20067;-66
2022/01/07 12:47:16;;;;;;;4.05;1.80;;;14.50;99.90;;;;;;5078778;28;20366;-66
2022/01/07 12:49:47;;;;;;;6.15;1.90;;;14.50;99.90;;;;;;5079332;28;20071;-65
2022/01/07 12:52:20;;;;;;;3.08;1.88;;;14.40;99.90;;;;;;5096728;28;20047;-65
2022/01/07 12:55:06;;;;;;;5.90;2.35;;;14.30;99.90;;;;;;5078626;28;20048;-65
2022/01/07 12:57:48;;;;;;;7.03;2.45;;;14.20;99.90;;;;;;5096067;28;20055;-65